Time;durP1;ratioP1;P1;durP2;ratioP2;P2;SDS_P1;SDS_P2;PMS_P1;PMS_P2;Temp;Humidity;BMP_temperature;BMP_pressure;BME280_temperature;BME280_humidity;BME280_pressure;Samples;Min_cycle;Max_cycle;Signal;HPM_P1;HPM_P2
2021/12/20 00:01:48;;;;;;;33.17;9.15;;;5.80;99.90;;;;;;5061004;28;20044;-68
2021/12/20 00:04:13;;;;;;;37.10;11.02;;;5.80;99.90;;;;;;5067313;28;20119;-68
2021/12/20 00:06:39;;;;;;;38.95;9.18;;;5.70;99.90;;;;;;5061143;28;20135;-68
2021/12/20 00:09:06;;;;;;;41.33;9.75;;;5.70;99.90;;;;;;5062242;28;20145;-68
2021/12/20 00:11:32;;;;;;;34.25;9.18;;;5.60;99.90;;;;;;5060903;28;20040;-68
2021/12/20 00:13:58;;;;;;;70.07;12.18;;;5.50;99.90;;;;;;5059592;28;20548;-68
2021/12/20 00:16:24;;;;;;;44.05;9.07;;;5.40;99.90;;;;;;5062418;28;20532;-68
2021/12/20 00:18:49;;;;;;;38.60;8.05;;;5.30;99.90;;;;;;5061896;28;20049;-68
2021/12/20 00:21:15;;;;;;;41.72;8.23;;;5.20;99.90;;;;;;5065013;28;20042;-68
2021/12/20 00:23:41;;;;;;;40.80;9.85;;;5.20;99.90;;;;;;5062379;28;20045;-68
2021/12/20 00:26:08;;;;;;;42.00;7.25;;;5.10;99.90;;;;;;5060435;28;20060;-68
2021/12/20 00:28:35;;;;;;;63.25;10.50;;;5.00;99.90;;;;;;5061332;28;20052;-68
2021/12/20 00:31:00;;;;;;;50.22;9.35;;;5.00;99.90;;;;;;5058328;28;20037;-68
2021/12/20 00:33:28;;;;;;;40.13;8.68;;;4.90;99.90;;;;;;5064498;28;20032;-68
2021/12/20 00:35:54;;;;;;;62.33;9.57;;;4.80;99.90;;;;;;5063589;28;20470;-68
2021/12/20 00:41:03;;;;;;;32.22;7.90;;;4.70;99.90;;;;;;5060305;28;20053;-68
2021/12/20 00:43:29;;;;;;;44.45;8.73;;;4.60;99.90;;;;;;5058334;28;20414;-68
2021/12/20 00:45:55;;;;;;;45.80;9.07;;;4.60;99.90;;;;;;5059434;28;20506;-68
2021/12/20 00:48:20;;;;;;;54.08;8.98;;;4.50;99.90;;;;;;5062199;28;20041;-68
2021/12/20 00:50:46;;;;;;;43.88;8.82;;;4.40;99.90;;;;;;5061301;28;20443;-68
2021/12/20 00:53:13;;;;;;;39.58;9.50;;;4.40;99.90;;;;;;5060507;28;20072;-68
2021/12/20 00:55:40;;;;;;;41.20;9.23;;;4.30;99.90;;;;;;5059111;28;20070;-68
2021/12/20 00:58:06;;;;;;;40.55;8.57;;;4.30;99.90;;;;;;5058476;28;20051;-68
2021/12/20 01:00:35;;;;;;;34.00;10.25;;;4.20;99.90;;;;;;5061930;28;20102;-68
2021/12/20 01:03:03;;;;;;;41.00;8.20;;;4.20;99.90;;;;;;5056938;28;20041;-68
2021/12/20 01:05:29;;;;;;;48.40;9.98;;;4.10;99.90;;;;;;5057477;28;20041;-68
2021/12/20 01:07:59;;;;;;;35.95;7.75;;;4.00;99.90;;;;;;5063276;28;20120;-68
2021/12/20 01:10:28;;;;;;;47.47;9.10;;;4.00;99.90;;;;;;5063071;28;20045;-68
2021/12/20 01:12:55;;;;;;;40.33;7.90;;;3.90;99.90;;;;;;5060356;28;20139;-68
2021/12/20 01:15:28;;;;;;;45.50;10.30;;;3.90;99.90;;;;;;5059207;28;20041;-68
2021/12/20 01:17:54;;;;;;;33.08;8.50;;;3.80;99.90;;;;;;5057586;28;20052;-68
2021/12/20 01:20:20;;;;;;;33.28;6.90;;;3.80;99.90;;;;;;5062717;28;20075;-68
2021/12/20 01:22:48;;;;;;;40.15;8.88;;;3.80;99.90;;;;;;5064447;28;20057;-68
2021/12/20 01:25:15;;;;;;;37.20;9.23;;;3.70;99.90;;;;;;5056916;28;20049;-68
2021/12/20 01:27:41;;;;;;;34.08;8.27;;;3.70;99.90;;;;;;5061971;28;20064;-68
2021/12/20 01:30:08;;;;;;;32.78;7.68;;;3.60;99.90;;;;;;5063427;28;20052;-68
2021/12/20 01:32:34;;;;;;;25.17;7.32;;;3.60;99.90;;;;;;5060638;28;20510;-68
2021/12/20 01:35:00;;;;;;;40.63;9.23;;;3.50;99.90;;;;;;5043018;28;20037;-68
2021/12/20 01:37:26;;;;;;;36.00;8.43;;;3.50;99.90;;;;;;5058888;28;20123;-68
2021/12/20 01:39:53;;;;;;;33.10;7.57;;;3.50;99.90;;;;;;5074854;28;20090;-68
2021/12/20 01:42:22;;;;;;;29.13;8.07;;;3.40;99.90;;;;;;5058430;28;20756;-68
2021/12/20 01:44:49;;;;;;;37.47;8.18;;;3.40;99.90;;;;;;5058789;28;20088;-68
2021/12/20 01:47:16;;;;;;;42.85;9.07;;;3.30;99.90;;;;;;5056940;28;20080;-68
2021/12/20 01:49:58;;;;;;;29.35;8.02;;;3.30;99.90;;;;;;5061332;28;20045;-68
2021/12/20 01:52:27;;;;;;;33.50;7.70;;;3.20;99.90;;;;;;5059205;28;20052;-68
2021/12/20 01:54:53;;;;;;;44.80;9.38;;;3.20;99.90;;;;;;5043161;28;20114;-68
2021/12/20 01:57:21;;;;;;;31.33;7.65;;;3.20;99.90;;;;;;5059428;28;20053;-68
2021/12/20 01:59:46;;;;;;;31.95;6.53;;;3.10;99.90;;;;;;5052883;28;20136;-68
2021/12/20 02:02:13;;;;;;;33.15;7.28;;;3.10;99.90;;;;;;5056366;28;20500;-68
2021/12/20 02:04:43;;;;;;;33.60;7.32;;;3.10;99.90;;;;;;5065979;28;20061;-68
2021/12/20 02:07:09;;;;;;;37.35;7.78;;;3.00;99.90;;;;;;5060793;28;20120;-68
2021/12/20 02:09:34;;;;;;;32.05;7.47;;;3.00;99.90;;;;;;5062944;28;20111;-68
2021/12/20 02:12:00;;;;;;;33.05;8.38;;;2.90;99.90;;;;;;5061747;28;20041;-68
2021/12/20 02:14:26;;;;;;;47.63;8.88;;;2.90;99.90;;;;;;5060914;28;20083;-68
2021/12/20 02:16:52;;;;;;;46.38;9.30;;;2.90;99.90;;;;;;5055764;28;20101;-68
2021/12/20 02:19:18;;;;;;;33.85;8.70;;;2.80;99.90;;;;;;5057573;28;20049;-68
2021/12/20 02:21:45;;;;;;;34.60;8.23;;;2.80;99.90;;;;;;5060489;28;20118;-68
2021/12/20 02:24:12;;;;;;;24.38;6.95;;;2.80;99.90;;;;;;5060127;28;20904;-68
2021/12/20 02:26:38;;;;;;;34.20;8.02;;;2.80;99.90;;;;;;5073665;28;20044;-68
2021/12/20 02:29:07;;;;;;;29.20;8.23;;;2.80;99.90;;;;;;5063810;28;20135;-68
2021/12/20 02:39:47;;;;;;;31.60;7.53;;;2.60;99.90;;;;;;5071466;28;20048;-68
2021/12/20 02:42:18;;;;;;;38.80;9.23;;;2.60;99.90;;;;;;5066622;28;20050;-68
2021/12/20 02:45:03;;;;;;;42.42;9.25;;;2.60;99.90;;;;;;5084607;28;20074;-68
2021/12/20 02:47:29;;;;;;;30.90;7.05;;;2.60;99.90;;;;;;5083369;28;20044;-68
2021/12/20 02:49:58;;;;;;;36.75;7.88;;;2.60;99.90;;;;;;5064345;28;20090;-68
2021/12/20 02:52:24;;;;;;;37.22;7.70;;;2.50;99.90;;;;;;5065984;28;20044;-68
2021/12/20 02:54:50;;;;;;;29.92;7.65;;;2.60;99.90;;;;;;5069351;28;20102;-68
2021/12/20 02:57:16;;;;;;;41.70;8.13;;;2.50;99.90;;;;;;5071250;28;20488;-68
2021/12/20 02:59:42;;;;;;;38.08;7.22;;;2.50;99.90;;;;;;5066639;28;20051;-68
2021/12/20 03:02:10;;;;;;;32.42;7.05;;;2.50;99.90;;;;;;5086090;28;20485;-68
2021/12/20 03:04:36;;;;;;;39.55;8.48;;;2.50;99.90;;;;;;5081637;28;20132;-68
2021/12/20 03:07:06;;;;;;;40.90;7.43;;;2.50;99.90;;;;;;5069147;28;20153;-68
2021/12/20 03:09:40;;;;;;;35.38;8.85;;;2.40;99.90;;;;;;5068352;28;20400;-68
2021/12/20 03:12:09;;;;;;;27.05;7.25;;;2.40;99.90;;;;;;5087217;28;20397;-68
2021/12/20 03:14:39;;;;;;;;;;;2.40;99.90;;;;;;5061268;28;20120;-68
2021/12/20 03:17:06;;;;;;;37.15;7.32;;;2.30;99.90;;;;;;5068879;28;19930;-68
2021/12/20 03:19:32;;;;;;;38.90;8.43;;;2.30;99.90;;;;;;5059231;28;20569;-68
2021/12/20 03:21:59;;;;;;;34.45;7.30;;;2.30;99.90;;;;;;5084099;28;20059;-68
2021/12/20 03:24:25;;;;;;;27.25;6.45;;;2.30;99.90;;;;;;5066756;28;20047;-68
2021/12/20 03:26:50;;;;;;;29.20;7.72;;;2.30;99.90;;;;;;5065206;28;20048;-68
2021/12/20 03:29:17;;;;;;;40.42;6.72;;;2.30;99.90;;;;;;5064630;28;20135;-68
2021/12/20 03:31:43;;;;;;;33.03;7.85;;;2.20;99.90;;;;;;5067098;28;20089;-68
2021/12/20 03:34:10;;;;;;;37.80;7.93;;;2.20;99.90;;;;;;5064648;28;20452;-68
2021/12/20 03:36:36;;;;;;;29.33;6.78;;;2.20;99.90;;;;;;5064268;28;20055;-68
2021/12/20 03:39:05;;;;;;;34.67;6.93;;;2.10;99.90;;;;;;5065579;28;20089;-68
2021/12/20 03:41:32;;;;;;;28.58;6.95;;;2.10;99.90;;;;;;5063460;28;20107;-68
2021/12/20 03:43:58;;;;;;;32.63;7.25;;;2.10;99.90;;;;;;5072719;28;20131;-68
2021/12/20 03:46:24;;;;;;;33.90;6.85;;;2.10;99.90;;;;;;5066053;28;20071;-68
2021/12/20 03:48:49;;;;;;;33.70;7.13;;;2.00;99.90;;;;;;5063276;28;20572;-68
2021/12/20 03:51:15;;;;;;;31.30;6.22;;;2.00;99.90;;;;;;5068481;28;20045;-68
2021/12/20 03:53:41;;;;;;;26.83;7.30;;;2.00;99.90;;;;;;5066810;28;20055;-68
2021/12/20 03:56:07;;;;;;;24.15;5.53;;;2.00;99.90;;;;;;5066060;28;20032;-68
2021/12/20 03:58:34;;;;;;;30.48;7.10;;;1.90;99.90;;;;;;5076117;28;20048;-68
2021/12/20 04:01:05;;;;;;;27.75;6.60;;;1.90;99.90;;;;;;5061115;28;20842;-68
2021/12/20 04:03:33;;;;;;;30.30;6.63;;;1.90;99.90;;;;;;5061296;28;20047;-68
2021/12/20 04:05:59;;;;;;;45.80;6.00;;;1.90;99.90;;;;;;5069286;28;20056;-68
2021/12/20 04:08:25;;;;;;;18.65;4.85;;;1.80;99.90;;;;;;5060673;28;20044;-68
2021/12/20 04:10:53;;;;;;;25.13;5.65;;;1.70;99.90;;;;;;5067360;28;20052;-68
2021/12/20 04:13:19;;;;;;;22.07;5.57;;;1.60;99.90;;;;;;5062656;28;20055;-68
2021/12/20 04:15:44;;;;;;;24.40;6.28;;;1.60;99.90;;;;;;5066484;28;20298;-68
2021/12/20 04:18:10;;;;;;;34.30;5.82;;;1.60;99.90;;;;;;5067159;28;20139;-68
2021/12/20 04:20:35;;;;;;;24.98;5.68;;;1.60;99.90;;;;;;5064661;28;20040;-68
2021/12/20 04:23:01;;;;;;;19.73;4.95;;;1.50;99.90;;;;;;5067764;28;20393;-68
2021/12/20 04:25:27;;;;;;;24.98;6.03;;;1.50;99.90;;;;;;5065400;28;20044;-68
2021/12/20 04:27:52;;;;;;;33.33;6.18;;;1.50;99.90;;;;;;5073560;28;20040;-68
2021/12/20 04:30:18;;;;;;;32.67;5.85;;;1.50;99.90;;;;;;5044170;28;20051;-68
2021/12/20 04:32:46;;;;;;;30.55;5.93;;;1.50;99.90;;;;;;5064604;28;20036;-68
2021/12/20 04:35:13;;;;;;;29.15;5.60;;;1.50;99.90;;;;;;5064364;28;20039;-68
2021/12/20 04:37:41;;;;;;;18.25;3.88;;;1.50;99.90;;;;;;5081320;28;20043;-68
2021/12/20 04:40:11;;;;;;;23.95;5.68;;;1.40;99.90;;;;;;5061816;28;20123;-68
2021/12/20 04:42:37;;;;;;;21.67;5.72;;;1.40;99.90;;;;;;5063864;28;20036;-68
2021/12/20 04:45:04;;;;;;;23.60;5.90;;;1.40;99.90;;;;;;5086441;28;20414;-68
2021/12/20 04:47:29;;;;;;;21.33;5.30;;;1.40;99.90;;;;;;5066678;28;20046;-69
2021/12/20 04:49:55;;;;;;;30.17;6.20;;;1.40;99.90;;;;;;5063300;28;20405;-68
2021/12/20 04:52:21;;;;;;;34.25;6.68;;;1.40;99.90;;;;;;5065427;28;20046;-68
2021/12/20 04:54:47;;;;;;;24.55;5.28;;;1.30;99.90;;;;;;5063203;28;20044;-68
2021/12/20 04:57:12;;;;;;;28.70;5.82;;;1.30;99.90;;;;;;5066415;28;20455;-68
2021/12/20 04:59:38;;;;;;;26.83;5.53;;;1.30;99.90;;;;;;5061791;28;20048;-68
2021/12/20 05:02:04;;;;;;;30.25;6.28;;;1.30;99.90;;;;;;5066998;28;20044;-68
2021/12/20 05:04:29;;;;;;;14.60;5.00;;;1.20;99.90;;;;;;5062385;28;20421;-68
2021/12/20 05:06:55;;;;;;;17.30;5.95;;;1.20;99.90;;;;;;5079335;28;20039;-68
2021/12/20 05:09:25;;;;;;;15.45;5.05;;;1.20;99.90;;;;;;5061443;28;20036;-68
2021/12/20 05:11:58;;;;;;;23.98;4.97;;;1.10;99.90;;;;;;5063380;28;20052;-68
2021/12/20 05:14:24;;;;;;;23.27;5.13;;;1.10;99.90;;;;;;5078816;28;20078;-68
2021/12/20 05:16:51;;;;;;;16.45;4.30;;;1.10;99.90;;;;;;5064045;28;20508;-68
2021/12/20 05:19:17;;;;;;;25.30;4.73;;;1.00;99.90;;;;;;5064022;28;20036;-68
2021/12/20 05:21:43;;;;;;;21.92;4.43;;;1.00;99.90;;;;;;5065557;28;20634;-68
2021/12/20 05:24:08;;;;;;;20.50;4.20;;;1.00;99.90;;;;;;5083960;28;20052;-69
2021/12/20 05:26:34;;;;;;;14.73;4.45;;;1.00;99.90;;;;;;5057075;28;20056;-69
2021/12/20 05:29:06;;;;;;;18.45;4.25;;;1.00;99.90;;;;;;5061866;28;20043;-68
2021/12/20 05:31:33;;;;;;;20.63;5.13;;;0.90;99.90;;;;;;5066830;28;20121;-68
2021/12/20 05:33:59;;;;;;;15.40;4.28;;;0.90;99.90;;;;;;5062157;28;20045;-68
2021/12/20 05:36:25;;;;;;;27.48;5.93;;;0.90;99.90;;;;;;5064816;28;20113;-68
2021/12/20 05:38:50;;;;;;;17.08;5.47;;;0.80;99.90;;;;;;5064223;28;20097;-68
2021/12/20 05:41:16;;;;;;;26.17;6.63;;;0.80;99.90;;;;;;5065540;28;20055;-68
2021/12/20 05:43:42;;;;;;;18.63;4.90;;;0.80;99.90;;;;;;5065457;28;20048;-69
2021/12/20 05:46:07;;;;;;;33.42;6.60;;;0.80;99.90;;;;;;5065851;28;20048;-68
2021/12/20 05:48:33;;;;;;;16.70;5.60;;;0.80;99.90;;;;;;5082296;28;20040;-68
2021/12/20 05:50:59;;;;;;;16.48;5.07;;;0.80;99.90;;;;;;5064210;28;20763;-69
2021/12/20 05:53:24;;;;;;;17.48;5.00;;;0.70;99.90;;;;;;5063185;28;20139;-68
2021/12/20 05:55:50;;;;;;;20.35;5.38;;;0.70;99.90;;;;;;5063288;28;20100;-68
2021/12/20 05:58:16;;;;;;;20.27;5.05;;;0.70;99.90;;;;;;5079898;28;20130;-68
2021/12/20 06:00:42;;;;;;;18.90;5.32;;;0.70;99.90;;;;;;5080911;28;20123;-68
2021/12/20 06:03:09;;;;;;;22.90;6.53;;;0.70;99.90;;;;;;5067370;28;20062;-68
2021/12/20 06:05:35;;;;;;;20.30;5.57;;;0.60;99.90;;;;;;5069013;28;20100;-68
2021/12/20 06:08:02;;;;;;;21.77;5.30;;;0.60;99.90;;;;;;5060322;28;20711;-68
2021/12/20 06:10:27;;;;;;;24.90;6.20;;;0.60;99.90;;;;;;5063755;28;20079;-68
2021/12/20 06:12:54;;;;;;;14.50;4.97;;;0.60;99.90;;;;;;5068129;28;20464;-68
2021/12/20 06:15:19;;;;;;;17.45;5.63;;;0.60;99.90;;;;;;5065155;28;20074;-68
2021/12/20 06:17:45;;;;;;;18.63;4.68;;;0.60;99.90;;;;;;5066804;28;20073;-68
2021/12/20 06:20:12;;;;;;;19.55;4.72;;;0.50;99.90;;;;;;5063038;28;20052;-68
2021/12/20 06:22:38;;;;;;;20.33;5.60;;;0.50;99.90;;;;;;5083081;28;20401;-68
2021/12/20 06:25:05;;;;;;;39.13;7.47;;;0.50;99.90;;;;;;5062830;28;20048;-68
2021/12/20 06:27:31;;;;;;;26.52;5.53;;;0.50;99.90;;;;;;5083193;28;20050;-68
2021/12/20 06:29:57;;;;;;;19.05;6.22;;;0.50;99.90;;;;;;5063978;28;20765;-68
2021/12/20 06:32:22;;;;;;;21.67;6.15;;;0.40;99.90;;;;;;5069770;28;20048;-68
2021/12/20 06:34:48;;;;;;;32.08;7.93;;;0.40;99.90;;;;;;5071050;28;20058;-68
2021/12/20 06:37:14;;;;;;;26.52;6.88;;;0.40;99.90;;;;;;5082156;28;20489;-68
2021/12/20 06:39:40;;;;;;;27.70;7.35;;;0.40;99.90;;;;;;5061536;28;20054;-68
2021/12/20 06:42:06;;;;;;;21.73;5.93;;;0.30;99.90;;;;;;5085284;28;20388;-68
2021/12/20 06:44:32;;;;;;;25.10;6.63;;;0.30;99.90;;;;;;5081750;28;20056;-68
2021/12/20 06:46:59;;;;;;;23.63;5.93;;;0.30;99.90;;;;;;5066502;28;20044;-68
2021/12/20 06:49:25;;;;;;;20.27;5.85;;;0.30;99.90;;;;;;5057889;28;20047;-69
2021/12/20 06:51:52;;;;;;;17.60;5.90;;;0.30;99.90;;;;;;5065249;28;20040;-68
2021/12/20 06:54:19;;;;;;;23.42;6.13;;;0.30;99.90;;;;;;5066923;28;20413;-68
2021/12/20 06:56:45;;;;;;;22.80;5.93;;;0.20;99.90;;;;;;5084187;28;20044;-68
2021/12/20 06:59:11;;;;;;;26.85;6.55;;;0.20;99.90;;;;;;5064266;28;20467;-68
2021/12/20 07:01:37;;;;;;;25.17;6.00;;;0.20;99.90;;;;;;5061428;28;20135;-68
2021/12/20 07:04:03;;;;;;;22.23;6.32;;;0.20;99.90;;;;;;5086372;28;20067;-68
2021/12/20 07:06:29;;;;;;;22.25;6.47;;;0.10;99.90;;;;;;5082010;28;20048;-68
2021/12/20 07:08:56;;;;;;;17.45;5.90;;;0.10;99.90;;;;;;5079457;28;20089;-68
2021/12/20 07:11:22;;;;;;;31.63;6.57;;;0.10;99.90;;;;;;5067027;28;20431;-68
2021/12/20 07:13:48;;;;;;;11.80;5.10;;;0.10;99.90;;;;;;5064855;28;20511;-68
2021/12/20 07:16:14;;;;;;;17.65;5.35;;;0.10;99.90;;;;;;5071643;28;20488;-68
2021/12/20 07:18:40;;;;;;;16.67;4.97;;;0.00;99.90;;;;;;5065504;28;20131;-68
2021/12/20 07:21:06;;;;;;;21.75;4.72;;;0.00;99.90;;;;;;5076965;28;20123;-68
2021/12/20 07:23:34;;;;;;;18.70;6.68;;;0.00;99.90;;;;;;5063670;28;20056;-68
2021/12/20 07:26:00;;;;;;;23.70;6.77;;;-0.10;99.90;;;;;;5080635;28;21001;-68
2021/12/20 07:28:26;;;;;;;19.23;6.53;;;-0.10;99.90;;;;;;5063353;28;20451;-68
2021/12/20 07:30:51;;;;;;;20.10;5.68;;;-0.10;99.90;;;;;;5069060;28;20053;-68
2021/12/20 07:33:17;;;;;;;16.13;5.40;;;-0.10;99.90;;;;;;5066883;28;20122;-68
2021/12/20 07:35:45;;;;;;;20.25;6.45;;;-0.20;99.90;;;;;;5062634;28;20417;-68
2021/12/20 07:38:13;;;;;;;19.52;6.03;;;-0.20;99.90;;;;;;5062636;28;20047;-68
2021/12/20 07:40:44;;;;;;;18.60;6.05;;;-0.20;99.90;;;;;;5062172;28;20430;-68
2021/12/20 07:43:10;;;;;;;21.27;5.90;;;-0.20;99.90;;;;;;5064361;28;20485;-68
2021/12/20 07:45:35;;;;;;;17.88;5.68;;;-0.30;99.90;;;;;;5064144;28;20038;-68
2021/12/20 07:48:01;;;;;;;18.52;6.50;;;-0.20;99.90;;;;;;5068948;28;20504;-70
2021/12/20 07:50:27;;;;;;;16.48;6.38;;;-0.20;99.90;;;;;;5081440;28;20510;-68
2021/12/20 07:52:52;;;;;;;30.25;7.63;;;-0.10;99.90;;;;;;5081778;28;20048;-68
2021/12/20 07:55:18;;;;;;;17.05;6.65;;;-0.10;99.90;;;;;;5068623;28;20048;-68
2021/12/20 07:57:44;;;;;;;18.65;6.65;;;-0.10;99.90;;;;;;5061693;28;20512;-68
2021/12/20 08:00:11;;;;;;;14.93;5.90;;;-0.10;99.90;;;;;;5080920;28;20044;-68
2021/12/20 08:02:37;;;;;;;27.67;6.75;;;-0.10;99.90;;;;;;5061362;28;20099;-68
2021/12/20 08:05:03;;;;;;;20.70;7.82;;;-0.20;99.90;;;;;;5081143;28;20533;-68
2021/12/20 08:07:29;;;;;;;19.90;7.32;;;-0.20;99.90;;;;;;5068299;28;20084;-68
2021/12/20 08:09:54;;;;;;;22.08;7.15;;;-0.20;99.90;;;;;;5066787;28;20090;-68
2021/12/20 08:12:20;;;;;;;25.02;7.70;;;-0.20;99.90;;;;;;5077086;28;20055;-68
2021/12/20 08:14:46;;;;;;;20.92;8.40;;;-0.20;99.90;;;;;;5065683;28;20484;-68
2021/12/20 08:17:13;;;;;;;15.40;7.78;;;-0.20;99.90;;;;;;5067092;28;20044;-68
2021/12/20 08:19:39;;;;;;;26.65;8.57;;;-0.20;99.90;;;;;;5064894;28;20139;-68
2021/12/20 08:22:06;;;;;;;23.83;7.13;;;-0.20;99.90;;;;;;5060608;28;20131;-68
2021/12/20 08:24:32;;;;;;;33.38;9.40;;;-0.20;99.90;;;;;;5059070;28;20040;-68
2021/12/20 08:26:58;;;;;;;19.27;7.72;;;-0.20;99.90;;;;;;5065195;28;20542;-68
2021/12/20 08:29:26;;;;;;;18.38;7.18;;;-0.20;99.90;;;;;;5068555;28;20131;-68
2021/12/20 08:31:51;;;;;;;27.33;8.10;;;-0.20;99.90;;;;;;5063315;28;20935;-68
2021/12/20 08:34:17;;;;;;;28.45;7.78;;;-0.20;99.90;;;;;;5066346;28;20044;-67
2021/12/20 08:36:43;;;;;;;28.70;8.20;;;-0.20;99.90;;;;;;5078626;28;20501;-67
2021/12/20 08:39:09;;;;;;;16.80;8.07;;;-0.20;99.90;;;;;;5065440;28;20075;-67
2021/12/20 08:41:35;;;;;;;31.75;9.32;;;-0.20;99.90;;;;;;5063057;28;20150;-67
2021/12/20 08:44:00;;;;;;;34.15;9.32;;;-0.10;99.90;;;;;;5082175;28;20079;-67
2021/12/20 08:46:26;;;;;;;31.52;21.35;;;-0.10;99.90;;;;;;5079930;28;20048;-69
2021/12/20 08:48:56;;;;;;;795.70;129.45;;;-0.10;99.90;;;;;;5067376;28;20037;-68
2021/12/20 08:51:25;;;;;;;30.42;9.35;;;0.00;99.90;;;;;;5078198;28;20489;-71
2021/12/20 08:53:51;;;;;;;25.38;7.60;;;0.10;99.90;;;;;;5062745;28;20048;-71
2021/12/20 08:56:16;;;;;;;22.45;8.30;;;0.10;99.90;;;;;;5066556;28;20040;-72
2021/12/20 08:58:44;;;;;;;21.55;7.97;;;0.10;99.90;;;;;;5066827;28;20096;-71
2021/12/20 09:01:10;;;;;;;17.00;6.95;;;0.10;99.90;;;;;;5063933;28;20047;-71
2021/12/20 09:03:36;;;;;;;23.23;7.50;;;0.10;99.90;;;;;;5064571;28;20040;-71
2021/12/20 09:06:02;;;;;;;29.70;8.30;;;0.10;99.90;;;;;;5076044;28;20036;-71
2021/12/20 09:08:30;;;;;;;24.35;8.98;;;0.10;99.90;;;;;;5061096;28;20059;-71
2021/12/20 09:10:56;;;;;;;23.60;8.57;;;0.10;99.90;;;;;;5065159;28;20052;-71
2021/12/20 09:13:22;;;;;;;26.13;8.68;;;0.10;99.90;;;;;;5062091;28;20087;-71
2021/12/20 09:15:47;;;;;;;25.40;9.73;;;0.10;99.90;;;;;;5061702;28;20487;-71
2021/12/20 09:18:13;;;;;;;23.08;8.27;;;0.10;99.90;;;;;;5061220;28;20047;-71
2021/12/20 09:20:39;;;;;;;25.45;8.65;;;0.10;99.90;;;;;;5062025;28;20039;-71
2021/12/20 09:23:07;;;;;;;30.27;8.32;;;0.10;99.90;;;;;;5068540;28;20533;-71
2021/12/20 09:25:38;;;;;;;25.95;7.68;;;0.10;99.90;;;;;;5083919;28;20557;-71
2021/12/20 09:28:10;;;;;;;45.33;8.55;;;0.20;99.90;;;;;;5060102;28;20076;-71
2021/12/20 09:30:38;;;;;;;36.15;9.27;;;0.20;99.90;;;;;;5062992;28;20500;-71
2021/12/20 09:33:04;;;;;;;30.60;8.77;;;0.30;99.90;;;;;;5083198;28;20047;-71
2021/12/20 09:35:31;;;;;;;41.38;10.43;;;0.30;99.90;;;;;;5080016;28;20071;-71
2021/12/20 09:37:57;;;;;;;38.50;10.85;;;0.40;99.90;;;;;;5063690;28;20409;-71
2021/12/20 09:40:33;;;;;;;33.35;11.00;;;0.40;99.90;;;;;;5079206;28;20051;-71
2021/12/20 09:43:02;;;;;;;40.30;13.75;;;0.60;99.90;;;;;;5062773;28;20045;-71
2021/12/20 09:45:28;;;;;;;41.38;17.13;;;0.70;99.90;;;;;;5065197;28;20043;-70
2021/12/20 09:47:55;;;;;;;40.30;17.35;;;0.70;99.90;;;;;;5068389;28;20040;-70
2021/12/20 09:50:21;;;;;;;54.58;23.30;;;0.90;99.90;;;;;;5071327;28;20051;-66
2021/12/20 09:52:47;;;;;;;40.83;19.40;;;0.90;99.90;;;;;;5086325;28;20048;-66
2021/12/20 09:55:15;;;;;;;66.45;19.13;;;1.00;99.90;;;;;;5085478;28;20571;-67
2021/12/20 09:57:46;;;;;;;48.50;21.03;;;1.10;99.90;;;;;;5087026;28;20197;-66
2021/12/20 10:00:14;;;;;;;46.38;17.42;;;1.20;99.90;;;;;;5080944;28;20306;-67
2021/12/20 10:02:43;;;;;;;40.42;18.50;;;1.30;99.90;;;;;;5064057;28;20055;-67
2021/12/20 10:05:10;;;;;;;;;;;1.30;99.90;;;;;;5080837;28;20051;-67
2021/12/20 10:07:35;;;;;;;40.47;19.23;;;1.40;99.90;;;;;;5058755;28;19927;-67
2021/12/20 10:10:03;;;;;;;40.78;18.63;;;1.50;99.90;;;;;;5065695;28;20040;-67
2021/12/20 10:12:29;;;;;;;46.65;19.42;;;1.60;99.90;;;;;;5062596;28;20171;-67
2021/12/20 10:15:05;;;;;;;42.80;20.08;;;1.70;99.90;;;;;;5062900;28;20127;-67
2021/12/20 10:17:50;;;;;;;40.30;17.50;;;1.80;99.90;;;;;;5088093;28;20094;-67
2021/12/20 10:20:24;;;;;;;48.78;21.35;;;2.00;99.90;;;;;;5061506;28;20048;-68
2021/12/20 10:23:06;;;;;;;52.83;22.63;;;2.00;99.90;;;;;;5066715;28;20048;-68
2021/12/20 10:25:32;;;;;;;44.03;19.40;;;2.10;99.90;;;;;;5074305;28;20514;-68
2021/12/20 10:28:19;;;;;;;45.10;18.83;;;2.20;99.90;;;;;;5065870;28;20049;-67
2021/12/20 10:30:48;;;;;;;49.78;22.17;;;2.40;99.90;;;;;;5063775;28;20036;-67
2021/12/20 10:33:20;;;;;;;41.75;21.48;;;2.40;99.90;;;;;;5081511;28;20489;-67
2021/12/20 10:35:57;;;;;;;33.75;19.63;;;2.60;99.90;;;;;;5086723;28;20060;-67
2021/12/20 10:38:28;;;;;;;30.75;17.52;;;2.70;99.90;;;;;;5083009;28;20044;-67
2021/12/20 10:41:18;;;;;;;27.25;16.42;;;2.80;99.90;;;;;;5064196;28;20047;-67
2021/12/20 10:43:52;;;;;;;32.80;19.52;;;3.00;99.90;;;;;;5063014;28;20048;-67
2021/12/20 10:46:24;;;;;;;52.03;17.83;;;3.10;99.90;;;;;;5064270;28;20045;-68
2021/12/20 10:48:57;;;;;;;25.20;14.80;;;3.10;99.90;;;;;;5064184;28;20567;-71
2021/12/20 10:51:34;;;;;;;34.83;17.77;;;3.20;99.90;;;;;;5064031;28;20060;-72
2021/12/20 10:54:02;;;;;;;37.67;17.03;;;3.40;99.90;;;;;;5067164;28;20048;-69
2021/12/20 10:56:30;;;;;;;29.23;14.40;;;3.50;99.90;;;;;;5063098;28;20048;-68
2021/12/20 10:58:59;;;;;;;37.00;17.88;;;3.60;99.90;;;;;;5082066;28;20052;-67
2021/12/20 11:04:14;;;;;;;28.13;14.25;;;3.80;99.90;;;;;;5081304;28;19920;-67
2021/12/20 11:09:35;;;;;;;36.55;15.43;;;3.90;99.90;;;;;;5061972;28;20052;-69
2021/12/20 11:12:04;;;;;;;35.97;16.65;;;4.00;99.90;;;;;;5071640;28;20060;-68
2021/12/20 11:14:37;;;;;;;30.65;14.10;;;4.00;99.90;;;;;;5084480;28;20040;-67
2021/12/20 11:17:05;;;;;;;28.73;14.55;;;4.10;99.90;;;;;;5065737;28;20048;-67
2021/12/20 11:19:33;;;;;;;28.80;14.90;;;4.10;99.90;;;;;;5065552;28;20052;-67
2021/12/20 11:22:02;;;;;;;35.17;13.15;;;4.10;99.90;;;;;;5084752;28;20139;-67
2021/12/20 11:24:44;;;;;;;26.35;13.63;;;4.20;99.90;;;;;;5063450;28;20063;-67
2021/12/20 11:27:15;;;;;;;39.40;13.38;;;4.30;99.90;;;;;;5080582;28;20090;-68
2021/12/20 11:29:42;;;;;;;35.13;11.30;;;4.30;99.90;;;;;;5065461;28;20401;-66
2021/12/20 11:32:09;;;;;;;29.33;11.13;;;4.40;99.90;;;;;;5082279;28;20114;-67
2021/12/20 11:34:37;;;;;;;36.90;12.65;;;4.40;99.90;;;;;;5088091;28;20056;-67
2021/12/20 11:37:04;;;;;;;41.03;11.52;;;4.50;99.90;;;;;;5085693;28;20493;-67
2021/12/20 11:39:29;;;;;;;33.33;10.75;;;4.50;99.90;;;;;;5083422;28;20527;-69
2021/12/20 11:41:55;;;;;;;26.17;10.93;;;4.60;99.90;;;;;;5049121;28;20048;-67
2021/12/20 11:44:27;;;;;;;21.52;10.30;;;4.70;99.90;;;;;;5075911;28;20055;-68
2021/12/20 11:47:24;;;;;;;29.48;12.45;;;4.70;99.90;;;;;;5044460;28;20119;-70
2021/12/20 11:50:12;;;;;;;24.10;13.55;;;4.80;99.90;;;;;;5064179;28;20517;-70
2021/12/20 11:52:45;;;;;;;22.20;15.20;;;4.80;99.90;;;;;;5068302;28;20055;-70
2021/12/20 11:55:29;;;;;;;33.05;18.02;;;4.90;99.90;;;;;;5064874;28;20037;-69
2021/12/20 11:58:00;;;;;;;33.13;17.70;;;5.00;99.90;;;;;;5084442;28;20617;-66
2021/12/20 12:00:38;;;;;;;31.08;16.85;;;5.00;99.90;;;;;;5049426;28;20080;-67
2021/12/20 12:03:05;;;;;;;29.27;16.98;;;5.00;99.90;;;;;;5065734;28;20079;-68
2021/12/20 12:05:56;;;;;;;34.27;16.23;;;5.00;99.90;;;;;;5080057;28;20051;-67
2021/12/20 12:08:33;;;;;;;31.55;14.90;;;5.00;99.90;;;;;;5061159;28;20365;-67
2021/12/20 12:11:25;;;;;;;22.65;13.48;;;5.10;99.90;;;;;;5068213;28;20803;-68
2021/12/20 12:14:01;;;;;;;27.20;12.43;;;5.10;99.90;;;;;;5060241;28;20040;-68
2021/12/20 12:17:04;;;;;;;19.27;11.35;;;5.10;99.90;;;;;;5063354;28;20532;-68
2021/12/20 12:19:40;;;;;;;25.85;12.93;;;5.20;99.90;;;;;;5055287;28;20055;-67
2021/12/20 12:22:30;;;;;;;29.55;14.30;;;5.20;99.90;;;;;;5064869;28;20055;-67
2021/12/20 12:24:57;;;;;;;23.92;12.70;;;5.30;99.90;;;;;;5064581;28;20135;-68
2021/12/20 12:27:31;;;;;;;26.10;11.63;;;5.30;99.90;;;;;;5063622;28;20510;-67
2021/12/20 12:30:11;;;;;;;25.25;11.20;;;5.40;99.90;;;;;;5079754;28;20056;-68
2021/12/20 12:32:49;;;;;;;25.05;10.45;;;5.40;99.90;;;;;;5066191;28;20484;-67
2021/12/20 12:35:48;;;;;;;22.83;10.43;;;5.40;99.90;;;;;;5075309;28;20047;-68
2021/12/20 12:38:20;;;;;;;21.55;8.85;;;5.50;99.90;;;;;;5058542;28;20504;-68
2021/12/20 12:41:08;;;;;;;26.40;9.52;;;5.50;99.90;;;;;;5060477;28;20160;-68
2021/12/20 12:43:54;;;;;;;17.63;7.80;;;5.50;99.90;;;;;;5086089;28;20040;-68
2021/12/20 12:46:40;;;;;;;16.23;7.88;;;5.50;99.90;;;;;;5087164;28;20051;-68
2021/12/20 12:49:21;;;;;;;19.23;7.50;;;5.50;99.90;;;;;;5084581;28;20141;-68
2021/12/20 12:51:50;;;;;;;21.35;9.05;;;5.50;99.90;;;;;;5079100;28;20079;-68
2021/12/20 12:54:40;;;;;;;17.70;8.27;;;5.40;99.90;;;;;;5061097;28;20041;-68
2021/12/20 12:57:12;;;;;;;17.40;8.02;;;5.50;99.90;;;;;;5070545;28;20057;-68
2021/12/20 12:59:58;;;;;;;25.45;8.68;;;5.50;99.90;;;;;;5084697;28;20079;-68
2021/12/20 13:02:24;;;;;;;26.95;8.98;;;5.50;99.90;;;;;;5060195;28;20528;-68
2021/12/20 13:04:58;;;;;;;26.77;9.93;;;5.50;99.90;;;;;;5079997;28;20044;-68
2021/12/20 13:07:26;;;;;;;14.48;8.07;;;5.50;99.90;;;;;;5062845;28;20123;-68